createdAt,value
2022-11-19T00:03:47.556Z,96605.34
2022-11-19T00:07:54.110Z,96615.56
2022-11-19T00:12:16.746Z,96611.19
2022-11-19T00:16:20.537Z,96596.78
2022-11-19T00:20:24.078Z,96607.78
2022-11-19T00:24:29.427Z,96609.59
2022-11-19T00:28:34.350Z,96612.97
2022-11-19T00:32:37.770Z,96618.19
2022-11-19T00:36:41.238Z,96623.56
2022-11-19T00:40:45.037Z,96620.16
2022-11-19T00:44:50.221Z,96632.16
2022-11-19T00:48:55.779Z,96635.59
2022-11-19T00:52:59.724Z,96645.34
2022-11-19T00:57:03.517Z,96646.16
2022-11-19T01:01:09.591Z,96648.59
2022-11-19T01:05:13.349Z,96648.59
2022-11-19T01:09:16.797Z,96653.78
2022-11-19T01:13:38.969Z,96660.41
2022-11-19T01:17:43.814Z,96648.59
2022-11-19T01:21:47.427Z,96651.19
2022-11-19T01:25:51.363Z,96656.56
2022-11-19T01:29:54.830Z,96656.56
2022-11-19T01:34:00.185Z,96663.72
2022-11-19T01:38:04.415Z,96664.72
2022-11-19T01:42:27.947Z,96668.91
2022-11-19T01:46:34.101Z,96677.69
2022-11-19T01:50:44.691Z,96677.69
2022-11-19T01:54:53.773Z,96680.31
2022-11-19T01:59:01.867Z,96677.06
2022-11-19T02:03:05.427Z,96679.66
2022-11-19T02:07:13.483Z,96676.44
2022-11-19T02:11:45.293Z,96666.41
2022-11-19T02:15:53.379Z,96671.59
2022-11-19T02:20:35.157Z,96690.41
2022-11-19T02:24:51.755Z,96695.59
2022-11-19T02:29:05.751Z,96699.00
2022-11-19T02:33:14.635Z,96693.00
2022-11-19T02:37:25.543Z,96706.00
2022-11-19T02:41:38.179Z,96714.78
2022-11-19T02:45:45.705Z,96719.81
2022-11-19T02:49:55.723Z,96725.84
2022-11-19T02:53:59.913Z,96724.03
2022-11-19T02:58:08.229Z,96745.63
2022-11-19T03:02:32.389Z,96743.91
2022-11-19T03:06:38.084Z,96746.78
2022-11-19T03:11:00.458Z,96748.25
2022-11-19T03:15:33.806Z,96747.25
2022-11-19T03:19:41.597Z,96756.28
2022-11-19T03:23:52.859Z,96773.34
2022-11-19T03:28:01.533Z,96778.75
2022-11-19T03:32:08.948Z,96793.00
2022-11-19T03:36:16.325Z,96787.78
2022-11-19T03:40:23.631Z,96793.56
2022-11-19T03:44:34.918Z,96817.13
2022-11-19T03:48:39.758Z,96817.38
2022-11-19T03:52:44.945Z,96815.38
2022-11-19T03:56:52.046Z,96829.81
2022-11-19T04:00:55.854Z,96821.66
2022-11-19T04:04:59.410Z,96828.06
2022-11-19T04:09:02.507Z,96848.84
2022-11-19T04:13:07.029Z,96840.88
2022-11-19T04:17:10.917Z,96857.44
2022-11-19T04:21:14.544Z,96861.09
2022-11-19T04:25:18.372Z,96861.97
2022-11-19T04:29:23.076Z,96863.66
2022-11-19T04:33:26.411Z,96868.38
2022-11-19T04:37:29.994Z,96865.19
2022-11-19T04:41:33.150Z,96868.50
2022-11-19T04:45:38.038Z,96880.22
2022-11-19T04:49:41.079Z,96896.56
2022-11-19T04:53:44.543Z,96899.50
2022-11-19T04:57:50.225Z,96908.84
2022-11-19T05:01:55.448Z,96910.00
2022-11-19T05:05:59.580Z,96912.63
2022-11-19T05:10:02.779Z,96912.91
2022-11-19T05:14:06.125Z,96939.22
2022-11-19T05:18:12.069Z,96937.56
2022-11-19T05:22:15.669Z,96939.31
2022-11-19T05:26:19.215Z,96945.03
2022-11-19T05:30:27.432Z,96949.47
2022-11-19T05:34:32.380Z,96945.41
2022-11-19T05:38:38.225Z,96953.53
2022-11-19T05:42:41.943Z,96953.78
2022-11-19T05:46:45.831Z,96971.13
2022-11-19T05:50:50.308Z,96963.81
2022-11-19T05:54:53.994Z,96976.00
2022-11-19T05:58:57.520Z,96994.38
2022-11-19T06:03:01.194Z,97002.13
2022-11-19T06:07:05.868Z,96988.69
2022-11-19T06:11:29.405Z,97002.75
2022-11-19T06:15:33.020Z,97004.78
2022-11-19T06:19:36.689Z,97008.41
2022-11-19T06:23:41.617Z,97017.91
2022-11-19T06:27:45.197Z,97025.88
2022-11-19T06:31:48.635Z,97025.19
2022-11-19T06:35:53.764Z,97018.41
2022-11-19T06:39:58.690Z,97020.03
2022-11-19T06:44:02.293Z,97021.94
2022-11-19T06:48:05.593Z,97035.72
2022-11-19T06:52:08.973Z,97042.53
2022-11-19T06:56:14.325Z,97037.38
2022-11-19T07:00:18.957Z,97030.59
2022-11-19T07:04:22.496Z,97031.66
2022-11-19T07:08:25.606Z,97029.47
2022-11-19T07:12:30.540Z,97043.03
2022-11-19T07:16:36.430Z,97040.56
2022-11-19T07:20:39.923Z,97033.69
2022-11-19T07:24:43.356Z,97040.44
2022-11-19T07:28:48.187Z,97043.56
2022-11-19T07:32:51.664Z,97047.66
2022-11-19T07:36:54.738Z,97055.81
2022-11-19T07:40:58.437Z,97060.69
2022-11-19T07:45:06.922Z,97050.16
2022-11-19T07:49:10.068Z,97058.56
2022-11-19T07:53:13.106Z,97069.41
2022-11-19T07:57:16.421Z,97083.09
2022-11-19T08:01:23.332Z,97087.28
2022-11-19T08:05:26.747Z,97071.81
2022-11-19T08:09:29.848Z,97077.25
2022-11-19T08:13:33.166Z,97079.94
2022-11-19T08:17:55.172Z,97080.06
2022-11-19T08:21:58.386Z,97087.78
2022-11-19T08:26:01.805Z,97083.19
2022-11-19T08:30:05.475Z,97086.41
2022-11-19T08:34:10.108Z,97103.22
2022-11-19T08:38:13.522Z,97108.38
2022-11-19T08:42:34.285Z,97119.50
2022-11-19T08:46:38.882Z,97117.06
2022-11-19T08:50:43.611Z,97110.28
2022-11-19T08:54:46.830Z,97114.84
2022-11-19T08:58:50.740Z,97101.44
2022-11-19T09:02:54.350Z,97128.59
2022-11-19T09:06:58.919Z,97117.31
2022-11-19T09:11:23.107Z,97139.84
2022-11-19T09:15:26.871Z,97144.72
2022-11-19T09:19:30.382Z,97128.97
2022-11-19T09:23:35.040Z,97145.72
2022-11-19T09:27:38.564Z,97158.34
2022-11-19T09:31:43.266Z,97161.34
2022-11-19T09:35:46.708Z,97159.47
2022-11-19T09:39:51.202Z,97174.66
2022-11-19T09:44:05.564Z,97174.28
2022-11-19T09:48:22.314Z,97158.13
2022-11-19T09:52:27.589Z,97168.72
2022-11-19T09:56:37.227Z,97171.28
2022-11-19T10:00:40.907Z,97174.41
2022-11-19T10:04:44.868Z,97178.34
2022-11-19T10:09:00.310Z,97174.16
2022-11-19T10:13:33.434Z,97162.47
2022-11-19T10:17:45.338Z,97150.28
2022-11-19T10:21:58.187Z,97142.97
2022-11-19T10:26:07.287Z,97140.16
2022-11-19T10:30:18.193Z,97142.47
2022-11-19T10:34:27.862Z,97130.28
2022-11-19T10:38:37.999Z,97132.09
2022-11-19T10:42:45.014Z,97122.47
2022-11-19T10:46:51.872Z,97127.34
2022-11-19T10:50:57.647Z,97108.34
2022-11-19T10:55:06.824Z,97121.44
2022-11-19T10:59:14.035Z,97130.13
2022-11-19T11:03:24.748Z,97124.75
2022-11-19T11:07:50.470Z,97121.13
2022-11-19T11:12:12.110Z,97117.59
2022-11-19T11:16:18.998Z,97112.19
2022-11-19T11:20:28.527Z,97111.50
2022-11-19T11:24:35.154Z,97097.56
2022-11-19T11:28:38.390Z,97082.47
2022-11-19T11:32:42.745Z,97097.69
2022-11-19T11:36:47.498Z,97083.84
2022-11-19T11:41:20.734Z,97081.66
2022-11-19T11:45:28.963Z,97080.56
2022-11-19T11:49:35.636Z,97084.50
2022-11-19T11:53:40.528Z,97076.91
2022-11-19T11:57:54.732Z,97078.78
2022-11-19T12:02:02.583Z,97077.31
2022-11-19T12:06:14.014Z,97075.53
2022-11-19T12:10:35.959Z,97072.94
2022-11-19T12:14:47.532Z,97081.09
2022-11-19T12:19:06.037Z,97094.91
2022-11-19T12:23:23.987Z,97097.22
2022-11-19T12:27:34.849Z,97089.31
2022-11-19T12:31:55.736Z,97104.50
2022-11-19T12:36:09.098Z,97098.91
2022-11-19T12:40:29.072Z,97091.44
2022-11-19T12:44:49.415Z,97093.38
2022-11-19T12:49:12.783Z,97089.16
2022-11-19T12:53:29.453Z,97083.06
2022-11-19T12:57:43.894Z,97075.34
2022-11-19T13:01:52.623Z,97084.41
2022-11-19T13:05:59.896Z,97081.84
2022-11-19T13:10:09.412Z,97088.63
2022-11-19T13:14:18.409Z,97081.00
2022-11-19T13:18:24.423Z,97082.78
2022-11-19T13:22:35.442Z,97084.00
2022-11-19T13:26:39.903Z,97079.91
2022-11-19T13:30:47.982Z,97090.34
2022-11-19T13:35:06.034Z,97080.31
2022-11-19T13:39:16.362Z,97095.63
2022-11-19T13:43:39.515Z,97089.28
2022-11-19T13:47:50.421Z,97097.44
2022-11-19T13:52:01.856Z,97094.47
2022-11-19T13:56:05.915Z,97089.44
2022-11-19T14:00:23.894Z,97087.94
2022-11-19T14:04:47.082Z,97088.22
2022-11-19T14:09:02.806Z,97091.16
2022-11-19T14:13:24.011Z,97097.53
2022-11-19T14:17:54.965Z,97105.66
2022-11-19T14:22:17.844Z,97111.06
2022-11-19T14:26:54.383Z,97108.88
2022-11-19T14:31:08.453Z,97113.47
2022-11-19T14:35:39.898Z,97106.94
2022-11-19T14:39:47.070Z,97104.78
2022-11-19T14:44:10.156Z,97100.81
2022-11-19T14:48:15.143Z,97102.84
2022-11-19T14:52:24.403Z,97106.63
2022-11-19T14:56:28.937Z,97111.31
2022-11-19T15:00:35.409Z,97103.84
2022-11-19T15:04:44.425Z,97109.25
2022-11-19T15:08:53.174Z,97104.34
2022-11-19T15:13:23.516Z,97111.41
2022-11-19T15:17:27.930Z,97104.88
2022-11-19T15:22:08.592Z,97113.53
2022-11-19T15:26:20.918Z,97111.91
2022-11-19T15:30:34.071Z,97116.09
2022-11-19T15:39:25.401Z,97108.63
2022-11-19T15:43:34.513Z,97110.53
2022-11-19T15:47:43.972Z,97111.59
2022-11-19T15:52:01.636Z,97117.13
2022-11-19T15:56:10.264Z,97119.94
2022-11-19T16:00:19.864Z,97128.88
2022-11-19T16:04:24.468Z,97131.56
2022-11-19T16:08:28.651Z,97136.81
2022-11-19T16:12:50.893Z,97137.50
2022-11-19T16:17:12.068Z,97133.31
2022-11-19T16:21:19.224Z,97153.06
2022-11-19T16:25:29.344Z,97144.28
2022-11-19T16:29:37.426Z,97148.63
2022-11-19T16:33:42.462Z,97138.31
2022-11-19T16:37:47.889Z,97135.88
2022-11-19T16:42:14.125Z,97165.13
2022-11-19T16:46:23.427Z,97170.94
2022-11-19T16:50:32.218Z,97169.19
2022-11-19T16:54:47.624Z,97172.59
2022-11-19T16:58:55.139Z,97175.03
2022-11-19T17:03:00.247Z,97183.56
2022-11-19T17:07:03.523Z,97183.44
2022-11-19T17:11:39.711Z,97175.59
2022-11-19T17:15:44.510Z,97179.13
2022-11-19T17:19:50.030Z,97180.75
2022-11-19T17:23:53.394Z,97186.84
2022-11-19T17:27:59.088Z,97189.41
2022-11-19T17:32:05.549Z,97202.28
2022-11-19T17:36:15.152Z,97196.19
2022-11-19T17:40:18.405Z,97192.66
2022-11-19T17:44:35.171Z,97187.50
2022-11-19T17:48:40.826Z,97179.00
2022-11-19T17:52:46.338Z,97189.41
2022-11-19T17:56:50.023Z,97183.56
2022-11-19T18:00:53.230Z,97181.09
2022-11-19T18:04:56.771Z,97193.97
2022-11-19T18:09:01.618Z,97193.16
2022-11-19T18:13:05.167Z,97185.47
2022-11-19T18:17:11.245Z,97195.75
2022-11-19T18:21:15.801Z,97182.88
2022-11-19T18:25:22.446Z,97188.03
2022-11-19T18:29:25.986Z,97185.47
2022-11-19T18:33:29.610Z,97182.06
2022-11-19T18:37:32.837Z,97184.50
2022-11-19T18:41:38.191Z,97189.53
2022-11-19T18:45:41.951Z,97176.31
2022-11-19T18:49:45.673Z,97188.47
2022-11-19T18:53:49.533Z,97178.16
2022-11-19T18:57:54.175Z,97174.66
2022-11-19T19:01:58.352Z,97167.88
2022-11-19T19:06:03.154Z,97162.72
2022-11-19T19:10:07.415Z,97155.97
2022-11-19T19:14:12.452Z,97160.88
2022-11-19T19:18:15.720Z,97140.53
2022-11-19T19:22:21.120Z,97132.81
2022-11-19T19:26:25.808Z,97136.47
2022-11-19T19:30:30.736Z,97145.91
2022-11-19T19:34:34.200Z,97156.22
2022-11-19T19:38:38.009Z,97177.75
2022-11-19T19:42:41.677Z,97151.31
2022-11-19T19:46:48.953Z,97153.19
2022-11-19T19:50:53.013Z,97157.66
2022-11-19T19:54:56.203Z,97152.63
2022-11-19T19:59:00.891Z,97151.81
2022-11-19T20:03:05.915Z,97163.75
2022-11-19T20:07:10.138Z,97168.88
2022-11-19T20:11:15.830Z,97172.13
2022-11-19T20:15:19.521Z,97165.91
2022-11-19T20:19:25.281Z,97160.66
2022-11-19T20:23:29.623Z,97153.75
2022-11-19T20:27:33.242Z,97159.59
2022-11-19T20:31:37.374Z,97153.50
2022-11-19T20:35:51.418Z,97158.41
2022-11-19T20:39:55.047Z,97154.06
2022-11-19T20:44:16.324Z,97154.88
2022-11-19T20:48:20.014Z,97152.19
2022-11-19T20:52:25.279Z,97154.63
2022-11-19T20:56:28.354Z,97161.91
2022-11-19T21:00:33.550Z,97169.00
2022-11-19T21:04:38.614Z,97167.13
2022-11-19T21:08:43.590Z,97181.50
2022-11-19T21:13:00.903Z,97173.66
2022-11-19T21:17:04.288Z,97170.13
2022-11-19T21:21:09.012Z,97159.72
2022-11-19T21:25:13.648Z,97168.97
2022-11-19T21:29:17.621Z,97173.66
2022-11-19T21:33:20.721Z,97227.31
2022-11-19T21:37:24.257Z,97206.97
2022-11-19T21:41:29.217Z,97187.47
2022-11-19T21:45:32.903Z,97177.97
2022-11-19T21:49:36.096Z,97186.78
2022-11-19T21:53:39.578Z,97205.34
2022-11-19T21:57:45.356Z,97192.50
2022-11-19T22:01:54.400Z,97189.34
2022-11-19T22:06:01.492Z,97190.72
2022-11-19T22:10:05.794Z,97200.63
2022-11-19T22:14:11.126Z,97204.84
2022-11-19T22:18:14.690Z,97196.19
2022-11-19T22:22:17.778Z,97192.78
2022-11-19T22:26:21.391Z,97196.44
2022-11-19T22:30:26.546Z,97192.78
2022-11-19T22:34:30.091Z,97195.50
2022-11-19T22:38:33.264Z,97199.69
2022-11-19T22:42:36.757Z,97193.75
2022-11-19T22:46:41.850Z,97192.78
2022-11-19T22:50:45.167Z,97192.91
2022-11-19T22:54:48.642Z,97190.22
2022-11-19T22:58:53.169Z,97182.63
2022-11-19T23:02:58.112Z,97182.63
2022-11-19T23:07:01.616Z,97181.84
2022-11-19T23:11:07.467Z,97181.84
2022-11-19T23:15:11.483Z,97180.19
2022-11-19T23:19:19.912Z,97177.72
2022-11-19T23:23:23.950Z,97180.66
2022-11-19T23:27:27.558Z,97177.97
2022-11-19T23:31:32.740Z,97183.94
2022-11-19T23:35:37.936Z,97185.56
2022-11-19T23:39:41.415Z,97178.56
2022-11-19T23:43:45.670Z,97181.13
2022-11-19T23:47:48.687Z,97176.69
2022-11-19T23:51:53.715Z,97168.00
2022-11-19T23:55:57.219Z,97160.53
